sensor_id;sensor_type;location;lat;lon;timestamp;P1;durP1;ratioP1;P2;durP2;ratioP2
17145;SDS011;8688;54.444;18.444;2022-09-09T00:01:15;1.95;;;1.40;;
17145;SDS011;8688;54.444;18.444;2022-09-09T00:03:53;3.90;;;1.33;;
17145;SDS011;8688;54.444;18.444;2022-09-09T00:06:27;4.70;;;1.63;;
17145;SDS011;8688;54.444;18.444;2022-09-09T00:09:01;2.58;;;1.65;;
17145;SDS011;8688;54.444;18.444;2022-09-09T00:11:36;5.38;;;1.35;;
17145;SDS011;8688;54.444;18.444;2022-09-09T00:14:09;4.03;;;1.63;;
17145;SDS011;8688;54.444;18.444;2022-09-09T00:16:45;7.70;;;1.90;;
17145;SDS011;8688;54.444;18.444;2022-09-09T00:19:20;8.48;;;2.00;;
17145;SDS011;8688;54.444;18.444;2022-09-09T00:21:53;3.97;;;1.70;;
17145;SDS011;8688;54.444;18.444;2022-09-09T00:24:27;3.58;;;1.65;;
17145;SDS011;8688;54.444;18.444;2022-09-09T00:27:01;2.90;;;1.80;;
17145;SDS011;8688;54.444;18.444;2022-09-09T00:29:35;5.65;;;1.50;;
17145;SDS011;8688;54.444;18.444;2022-09-09T00:32:13;4.72;;;1.75;;
17145;SDS011;8688;54.444;18.444;2022-09-09T00:34:47;3.30;;;2.10;;
17145;SDS011;8688;54.444;18.444;2022-09-09T00:37:15;4.63;;;1.63;;
17145;SDS011;8688;54.444;18.444;2022-09-09T00:39:45;2.55;;;1.40;;
17145;SDS011;8688;54.444;18.444;2022-09-09T00:42:15;4.93;;;1.80;;
17145;SDS011;8688;54.444;18.444;2022-09-09T00:44:50;2.50;;;1.50;;
17145;SDS011;8688;54.444;18.444;2022-09-09T00:47:26;2.42;;;1.60;;
17145;SDS011;8688;54.444;18.444;2022-09-09T00:50:17;6.70;;;1.90;;
17145;SDS011;8688;54.444;18.444;2022-09-09T00:53:04;4.00;;;1.73;;
17145;SDS011;8688;54.444;18.444;2022-09-09T00:55:43;3.80;;;1.70;;
17145;SDS011;8688;54.444;18.444;2022-09-09T00:58:15;4.53;;;2.10;;
17145;SDS011;8688;54.444;18.444;2022-09-09T01:00:43;4.18;;;1.85;;
17145;SDS011;8688;54.444;18.444;2022-09-09T01:03:20;6.13;;;1.70;;
17145;SDS011;8688;54.444;18.444;2022-09-09T01:05:54;5.72;;;1.83;;
17145;SDS011;8688;54.444;18.444;2022-09-09T01:08:35;3.00;;;1.67;;
17145;SDS011;8688;54.444;18.444;2022-09-09T01:11:30;3.35;;;1.63;;
17145;SDS011;8688;54.444;18.444;2022-09-09T01:14:05;2.88;;;1.50;;
17145;SDS011;8688;54.444;18.444;2022-09-09T01:16:41;4.85;;;1.70;;
17145;SDS011;8688;54.444;18.444;2022-09-09T01:19:12;3.53;;;1.63;;
17145;SDS011;8688;54.444;18.444;2022-09-09T01:21:47;2.45;;;1.70;;
17145;SDS011;8688;54.444;18.444;2022-09-09T01:24:22;4.97;;;1.70;;
17145;SDS011;8688;54.444;18.444;2022-09-09T01:26:59;6.10;;;1.70;;
17145;SDS011;8688;54.444;18.444;2022-09-09T01:29:29;4.57;;;1.67;;
17145;SDS011;8688;54.444;18.444;2022-09-09T01:31:57;3.42;;;1.70;;
17145;SDS011;8688;54.444;18.444;2022-09-09T01:34:28;4.20;;;1.70;;
17145;SDS011;8688;54.444;18.444;2022-09-09T01:36:59;4.03;;;1.70;;
17145;SDS011;8688;54.444;18.444;2022-09-09T01:39:31;2.30;;;1.48;;
17145;SDS011;8688;54.444;18.444;2022-09-09T01:42:01;2.40;;;1.40;;
17145;SDS011;8688;54.444;18.444;2022-09-09T01:44:30;5.05;;;1.60;;
17145;SDS011;8688;54.444;18.444;2022-09-09T01:46:58;6.68;;;1.83;;
17145;SDS011;8688;54.444;18.444;2022-09-09T01:49:25;2.80;;;1.65;;
17145;SDS011;8688;54.444;18.444;2022-09-09T01:51:53;3.85;;;1.70;;
17145;SDS011;8688;54.444;18.444;2022-09-09T01:54:24;4.32;;;1.50;;
17145;SDS011;8688;54.444;18.444;2022-09-09T01:56:56;4.07;;;1.75;;
17145;SDS011;8688;54.444;18.444;2022-09-09T01:59:40;3.88;;;1.52;;
17145;SDS011;8688;54.444;18.444;2022-09-09T02:02:16;3.85;;;1.60;;
17145;SDS011;8688;54.444;18.444;2022-09-09T02:04:47;2.53;;;1.70;;
17145;SDS011;8688;54.444;18.444;2022-09-09T02:07:26;6.22;;;1.70;;
17145;SDS011;8688;54.444;18.444;2022-09-09T02:10:02;4.82;;;1.70;;
17145;SDS011;8688;54.444;18.444;2022-09-09T02:12:38;3.80;;;1.52;;
17145;SDS011;8688;54.444;18.444;2022-09-09T02:15:11;3.05;;;1.80;;
17145;SDS011;8688;54.444;18.444;2022-09-09T02:17:44;5.47;;;1.75;;
17145;SDS011;8688;54.444;18.444;2022-09-09T02:20:16;1.98;;;1.30;;
17145;SDS011;8688;54.444;18.444;2022-09-09T02:22:47;3.75;;;1.50;;
17145;SDS011;8688;54.444;18.444;2022-09-09T02:25:19;4.07;;;1.73;;
17145;SDS011;8688;54.444;18.444;2022-09-09T02:27:51;3.63;;;1.70;;
17145;SDS011;8688;54.444;18.444;2022-09-09T02:30:19;3.38;;;1.77;;
17145;SDS011;8688;54.444;18.444;2022-09-09T02:32:48;4.55;;;1.60;;
17145;SDS011;8688;54.444;18.444;2022-09-09T02:35:19;3.40;;;1.52;;
17145;SDS011;8688;54.444;18.444;2022-09-09T02:37:50;3.30;;;1.35;;
17145;SDS011;8688;54.444;18.444;2022-09-09T02:40:20;5.65;;;1.73;;
17145;SDS011;8688;54.444;18.444;2022-09-09T02:42:48;3.92;;;1.55;;
17145;SDS011;8688;54.444;18.444;2022-09-09T02:45:18;3.55;;;1.52;;
17145;SDS011;8688;54.444;18.444;2022-09-09T02:47:50;5.55;;;1.58;;
17145;SDS011;8688;54.444;18.444;2022-09-09T02:50:25;4.78;;;1.70;;
17145;SDS011;8688;54.444;18.444;2022-09-09T02:52:59;2.47;;;1.40;;
17145;SDS011;8688;54.444;18.444;2022-09-09T02:55:37;5.78;;;1.95;;
17145;SDS011;8688;54.444;18.444;2022-09-09T02:58:08;4.78;;;1.55;;
17145;SDS011;8688;54.444;18.444;2022-09-09T03:00:43;3.20;;;1.70;;
17145;SDS011;8688;54.444;18.444;2022-09-09T03:03:12;7.53;;;1.77;;
17145;SDS011;8688;54.444;18.444;2022-09-09T03:05:41;5.68;;;1.65;;
17145;SDS011;8688;54.444;18.444;2022-09-09T03:08:08;2.92;;;1.92;;
17145;SDS011;8688;54.444;18.444;2022-09-09T03:10:36;3.17;;;1.73;;
17145;SDS011;8688;54.444;18.444;2022-09-09T03:13:03;4.32;;;1.70;;
17145;SDS011;8688;54.444;18.444;2022-09-09T03:15:31;4.45;;;1.80;;
17145;SDS011;8688;54.444;18.444;2022-09-09T03:18:00;3.47;;;1.80;;
17145;SDS011;8688;54.444;18.444;2022-09-09T03:20:28;4.07;;;2.00;;
17145;SDS011;8688;54.444;18.444;2022-09-09T03:22:57;3.05;;;1.85;;
17145;SDS011;8688;54.444;18.444;2022-09-09T03:25:27;3.03;;;1.63;;
17145;SDS011;8688;54.444;18.444;2022-09-09T03:27:55;5.65;;;1.65;;
17145;SDS011;8688;54.444;18.444;2022-09-09T03:30:23;4.40;;;1.50;;
17145;SDS011;8688;54.444;18.444;2022-09-09T03:32:52;3.00;;;1.80;;
17145;SDS011;8688;54.444;18.444;2022-09-09T03:35:22;5.55;;;2.05;;
17145;SDS011;8688;54.444;18.444;2022-09-09T03:37:50;3.85;;;1.80;;
17145;SDS011;8688;54.444;18.444;2022-09-09T03:40:17;4.60;;;1.98;;
17145;SDS011;8688;54.444;18.444;2022-09-09T03:42:45;4.90;;;2.00;;
17145;SDS011;8688;54.444;18.444;2022-09-09T03:45:13;5.80;;;2.30;;
17145;SDS011;8688;54.444;18.444;2022-09-09T03:47:40;5.03;;;2.60;;
17145;SDS011;8688;54.444;18.444;2022-09-09T03:50:08;7.07;;;2.38;;
17145;SDS011;8688;54.444;18.444;2022-09-09T03:52:37;7.07;;;2.50;;
17145;SDS011;8688;54.444;18.444;2022-09-09T03:55:07;11.60;;;2.58;;
17145;SDS011;8688;54.444;18.444;2022-09-09T03:57:35;5.65;;;2.60;;
17145;SDS011;8688;54.444;18.444;2022-09-09T04:00:03;5.38;;;2.90;;
17145;SDS011;8688;54.444;18.444;2022-09-09T04:02:31;4.80;;;2.42;;
17145;SDS011;8688;54.444;18.444;2022-09-09T04:04:59;6.25;;;2.80;;
17145;SDS011;8688;54.444;18.444;2022-09-09T04:07:26;5.32;;;2.88;;
17145;SDS011;8688;54.444;18.444;2022-09-09T04:09:55;5.38;;;2.90;;
17145;SDS011;8688;54.444;18.444;2022-09-09T04:12:22;5.65;;;2.90;;
17145;SDS011;8688;54.444;18.444;2022-09-09T04:14:50;6.30;;;2.65;;
17145;SDS011;8688;54.444;18.444;2022-09-09T04:17:18;8.25;;;3.25;;
17145;SDS011;8688;54.444;18.444;2022-09-09T04:19:45;7.05;;;3.33;;
17145;SDS011;8688;54.444;18.444;2022-09-09T04:22:12;5.82;;;3.33;;
17145;SDS011;8688;54.444;18.444;2022-09-09T04:24:41;6.72;;;3.85;;
17145;SDS011;8688;54.444;18.444;2022-09-09T04:27:09;5.97;;;3.13;;
17145;SDS011;8688;54.444;18.444;2022-09-09T04:29:37;5.22;;;3.47;;
17145;SDS011;8688;54.444;18.444;2022-09-09T04:32:04;6.00;;;3.25;;
17145;SDS011;8688;54.444;18.444;2022-09-09T04:34:32;5.75;;;3.28;;
17145;SDS011;8688;54.444;18.444;2022-09-09T04:36:59;6.25;;;3.50;;
17145;SDS011;8688;54.444;18.444;2022-09-09T04:39:27;5.65;;;3.03;;
17145;SDS011;8688;54.444;18.444;2022-09-09T04:41:54;8.82;;;2.95;;
17145;SDS011;8688;54.444;18.444;2022-09-09T04:44:24;6.20;;;3.13;;
17145;SDS011;8688;54.444;18.444;2022-09-09T04:46:51;4.38;;;2.90;;
17145;SDS011;8688;54.444;18.444;2022-09-09T04:49:19;5.57;;;3.05;;
17145;SDS011;8688;54.444;18.444;2022-09-09T04:51:46;9.50;;;4.53;;
17145;SDS011;8688;54.444;18.444;2022-09-09T04:54:15;11.18;;;7.65;;
17145;SDS011;8688;54.444;18.444;2022-09-09T04:56:43;12.40;;;8.88;;
17145;SDS011;8688;54.444;18.444;2022-09-09T04:59:23;9.25;;;6.50;;
17145;SDS011;8688;54.444;18.444;2022-09-09T05:02:04;12.80;;;7.78;;
17145;SDS011;8688;54.444;18.444;2022-09-09T05:04:31;7.95;;;5.70;;
17145;SDS011;8688;54.444;18.444;2022-09-09T05:06:59;6.88;;;4.57;;
17145;SDS011;8688;54.444;18.444;2022-09-09T05:09:26;5.90;;;3.53;;
17145;SDS011;8688;54.444;18.444;2022-09-09T05:11:54;7.05;;;3.22;;
17145;SDS011;8688;54.444;18.444;2022-09-09T05:14:21;7.30;;;3.50;;
17145;SDS011;8688;54.444;18.444;2022-09-09T05:16:50;5.47;;;2.97;;
17145;SDS011;8688;54.444;18.444;2022-09-09T05:19:18;5.07;;;2.70;;
17145;SDS011;8688;54.444;18.444;2022-09-09T05:21:45;6.85;;;3.47;;
17145;SDS011;8688;54.444;18.444;2022-09-09T05:24:13;4.43;;;3.10;;
17145;SDS011;8688;54.444;18.444;2022-09-09T05:26:40;5.10;;;3.13;;
17145;SDS011;8688;54.444;18.444;2022-09-09T05:29:08;6.15;;;3.00;;
17145;SDS011;8688;54.444;18.444;2022-09-09T05:31:36;7.22;;;3.33;;
17145;SDS011;8688;54.444;18.444;2022-09-09T05:34:04;7.05;;;3.00;;
17145;SDS011;8688;54.444;18.444;2022-09-09T05:36:31;6.85;;;3.33;;
17145;SDS011;8688;54.444;18.444;2022-09-09T05:38:58;6.18;;;3.58;;
17145;SDS011;8688;54.444;18.444;2022-09-09T05:41:26;5.35;;;2.83;;
17145;SDS011;8688;54.444;18.444;2022-09-09T05:43:54;4.43;;;2.80;;
17145;SDS011;8688;54.444;18.444;2022-09-09T05:46:21;4.93;;;3.30;;
17145;SDS011;8688;54.444;18.444;2022-09-09T05:48:51;6.18;;;3.28;;
17145;SDS011;8688;54.444;18.444;2022-09-09T05:51:21;6.97;;;2.92;;
17145;SDS011;8688;54.444;18.444;2022-09-09T05:53:51;7.07;;;3.53;;
17145;SDS011;8688;54.444;18.444;2022-09-09T05:56:20;7.82;;;3.22;;
17145;SDS011;8688;54.444;18.444;2022-09-09T05:58:50;7.85;;;2.85;;
17145;SDS011;8688;54.444;18.444;2022-09-09T06:01:19;4.20;;;3.00;;
17145;SDS011;8688;54.444;18.444;2022-09-09T06:03:48;4.63;;;2.75;;
17145;SDS011;8688;54.444;18.444;2022-09-09T06:06:18;5.57;;;2.80;;
17145;SDS011;8688;54.444;18.444;2022-09-09T06:08:47;6.43;;;2.92;;
17145;SDS011;8688;54.444;18.444;2022-09-09T06:11:17;6.22;;;2.95;;
17145;SDS011;8688;54.444;18.444;2022-09-09T06:13:46;5.10;;;2.72;;
17145;SDS011;8688;54.444;18.444;2022-09-09T06:16:14;4.78;;;2.80;;
17145;SDS011;8688;54.444;18.444;2022-09-09T06:18:42;6.40;;;2.80;;
17145;SDS011;8688;54.444;18.444;2022-09-09T06:21:11;4.43;;;2.80;;
17145;SDS011;8688;54.444;18.444;2022-09-09T06:23:44;5.68;;;2.47;;
17145;SDS011;8688;54.444;18.444;2022-09-09T06:26:13;5.35;;;2.50;;
17145;SDS011;8688;54.444;18.444;2022-09-09T06:28:42;4.70;;;2.28;;
17145;SDS011;8688;54.444;18.444;2022-09-09T06:31:11;5.82;;;2.70;;
17145;SDS011;8688;54.444;18.444;2022-09-09T06:33:40;2.97;;;2.13;;
17145;SDS011;8688;54.444;18.444;2022-09-09T06:36:10;4.18;;;2.70;;
17145;SDS011;8688;54.444;18.444;2022-09-09T06:38:39;5.68;;;2.50;;
17145;SDS011;8688;54.444;18.444;2022-09-09T06:41:08;5.90;;;2.58;;
17145;SDS011;8688;54.444;18.444;2022-09-09T06:43:36;5.47;;;2.67;;
17145;SDS011;8688;54.444;18.444;2022-09-09T06:46:04;4.43;;;2.60;;
17145;SDS011;8688;54.444;18.444;2022-09-09T06:48:33;5.68;;;2.53;;
17145;SDS011;8688;54.444;18.444;2022-09-09T06:51:02;4.43;;;2.47;;
17145;SDS011;8688;54.444;18.444;2022-09-09T06:53:31;4.78;;;2.53;;
17145;SDS011;8688;54.444;18.444;2022-09-09T06:56:19;4.68;;;2.80;;
17145;SDS011;8688;54.444;18.444;2022-09-09T06:58:48;3.92;;;2.30;;
17145;SDS011;8688;54.444;18.444;2022-09-09T07:01:23;6.22;;;2.30;;
17145;SDS011;8688;54.444;18.444;2022-09-09T07:03:52;3.95;;;2.42;;
17145;SDS011;8688;54.444;18.444;2022-09-09T07:06:21;4.03;;;2.60;;
17145;SDS011;8688;54.444;18.444;2022-09-09T07:08:50;4.53;;;2.90;;
17145;SDS011;8688;54.444;18.444;2022-09-09T07:11:20;3.47;;;2.72;;
17145;SDS011;8688;54.444;18.444;2022-09-09T07:13:48;5.18;;;2.90;;
17145;SDS011;8688;54.444;18.444;2022-09-09T07:16:16;3.80;;;2.80;;
17145;SDS011;8688;54.444;18.444;2022-09-09T07:18:45;6.88;;;2.90;;
17145;SDS011;8688;54.444;18.444;2022-09-09T07:21:15;4.65;;;2.50;;
17145;SDS011;8688;54.444;18.444;2022-09-09T07:23:44;3.22;;;2.45;;
17145;SDS011;8688;54.444;18.444;2022-09-09T07:26:12;3.83;;;2.30;;
17145;SDS011;8688;54.444;18.444;2022-09-09T07:28:42;4.50;;;2.50;;
17145;SDS011;8688;54.444;18.444;2022-09-09T07:31:12;4.88;;;2.75;;
17145;SDS011;8688;54.444;18.444;2022-09-09T07:33:42;5.43;;;2.80;;
17145;SDS011;8688;54.444;18.444;2022-09-09T07:36:13;5.32;;;3.05;;
17145;SDS011;8688;54.444;18.444;2022-09-09T07:38:42;5.75;;;2.95;;
17145;SDS011;8688;54.444;18.444;2022-09-09T07:41:11;4.93;;;2.80;;
17145;SDS011;8688;54.444;18.444;2022-09-09T07:43:40;5.55;;;3.28;;
17145;SDS011;8688;54.444;18.444;2022-09-09T07:46:11;4.88;;;2.53;;
17145;SDS011;8688;54.444;18.444;2022-09-09T07:48:44;4.20;;;2.75;;
17145;SDS011;8688;54.444;18.444;2022-09-09T07:51:13;6.70;;;3.22;;
17145;SDS011;8688;54.444;18.444;2022-09-09T07:53:43;5.50;;;3.20;;
17145;SDS011;8688;54.444;18.444;2022-09-09T07:56:11;6.35;;;3.55;;
17145;SDS011;8688;54.444;18.444;2022-09-09T07:58:40;4.50;;;2.92;;
17145;SDS011;8688;54.444;18.444;2022-09-09T08:01:10;4.35;;;2.53;;
17145;SDS011;8688;54.444;18.444;2022-09-09T08:03:39;5.78;;;2.92;;
17145;SDS011;8688;54.444;18.444;2022-09-09T08:06:07;7.45;;;2.92;;
17145;SDS011;8688;54.444;18.444;2022-09-09T08:08:35;5.53;;;2.85;;
17145;SDS011;8688;54.444;18.444;2022-09-09T08:11:04;5.03;;;3.25;;
17145;SDS011;8688;54.444;18.444;2022-09-09T08:13:34;4.35;;;2.90;;
17145;SDS011;8688;54.444;18.444;2022-09-09T08:16:05;4.63;;;2.40;;
17145;SDS011;8688;54.444;18.444;2022-09-09T08:18:36;7.35;;;3.22;;
17145;SDS011;8688;54.444;18.444;2022-09-09T08:21:05;5.10;;;3.25;;
17145;SDS011;8688;54.444;18.444;2022-09-09T08:23:34;4.45;;;3.10;;
17145;SDS011;8688;54.444;18.444;2022-09-09T08:26:10;4.05;;;2.70;;
17145;SDS011;8688;54.444;18.444;2022-09-09T08:28:39;7.55;;;3.47;;
17145;SDS011;8688;54.444;18.444;2022-09-09T08:31:07;5.03;;;3.10;;
17145;SDS011;8688;54.444;18.444;2022-09-09T08:33:38;5.53;;;3.13;;
17145;SDS011;8688;54.444;18.444;2022-09-09T08:36:07;4.80;;;3.17;;
17145;SDS011;8688;54.444;18.444;2022-09-09T08:38:37;4.40;;;3.00;;
17145;SDS011;8688;54.444;18.444;2022-09-09T08:41:13;3.33;;;2.92;;
17145;SDS011;8688;54.444;18.444;2022-09-09T08:44:00;5.25;;;3.20;;
17145;SDS011;8688;54.444;18.444;2022-09-09T08:46:33;5.35;;;2.97;;
17145;SDS011;8688;54.444;18.444;2022-09-09T08:49:14;5.22;;;2.97;;
17145;SDS011;8688;54.444;18.444;2022-09-09T08:51:48;3.90;;;2.83;;
17145;SDS011;8688;54.444;18.444;2022-09-09T08:54:16;4.10;;;2.95;;
17145;SDS011;8688;54.444;18.444;2022-09-09T08:56:44;3.30;;;2.50;;
17145;SDS011;8688;54.444;18.444;2022-09-09T08:59:11;2.88;;;2.40;;
17145;SDS011;8688;54.444;18.444;2022-09-09T09:04:45;4.97;;;2.90;;
17145;SDS011;8688;54.444;18.444;2022-09-09T09:07:25;5.22;;;3.80;;
17145;SDS011;8688;54.444;18.444;2022-09-09T09:10:09;8.48;;;4.22;;
17145;SDS011;8688;54.444;18.444;2022-09-09T09:12:42;6.28;;;3.50;;
17145;SDS011;8688;54.444;18.444;2022-09-09T09:15:15;5.15;;;3.53;;
17145;SDS011;8688;54.444;18.444;2022-09-09T09:17:46;5.35;;;3.35;;
17145;SDS011;8688;54.444;18.444;2022-09-09T09:20:15;3.80;;;2.78;;
17145;SDS011;8688;54.444;18.444;2022-09-09T09:22:48;7.70;;;3.00;;
17145;SDS011;8688;54.444;18.444;2022-09-09T09:25:17;5.00;;;2.60;;
17145;SDS011;8688;54.444;18.444;2022-09-09T09:27:49;2.83;;;2.15;;
17145;SDS011;8688;54.444;18.444;2022-09-09T09:30:26;3.13;;;2.30;;
17145;SDS011;8688;54.444;18.444;2022-09-09T09:33:02;5.93;;;3.30;;
17145;SDS011;8688;54.444;18.444;2022-09-09T09:35:34;2.60;;;2.20;;
17145;SDS011;8688;54.444;18.444;2022-09-09T09:38:01;2.80;;;2.25;;
17145;SDS011;8688;54.444;18.444;2022-09-09T09:40:47;3.83;;;2.30;;
17145;SDS011;8688;54.444;18.444;2022-09-09T09:43:18;3.05;;;2.65;;
17145;SDS011;8688;54.444;18.444;2022-09-09T09:45:49;5.75;;;2.90;;
17145;SDS011;8688;54.444;18.444;2022-09-09T09:48:17;3.75;;;2.65;;
17145;SDS011;8688;54.444;18.444;2022-09-09T09:50:49;3.63;;;2.85;;
17145;SDS011;8688;54.444;18.444;2022-09-09T09:53:23;3.83;;;2.63;;
17145;SDS011;8688;54.444;18.444;2022-09-09T09:55:56;3.13;;;2.50;;
17145;SDS011;8688;54.444;18.444;2022-09-09T09:58:27;3.75;;;2.72;;
17145;SDS011;8688;54.444;18.444;2022-09-09T10:00:59;4.35;;;3.10;;
17145;SDS011;8688;54.444;18.444;2022-09-09T10:03:28;6.25;;;4.00;;
17145;SDS011;8688;54.444;18.444;2022-09-09T10:05:58;5.90;;;3.83;;
17145;SDS011;8688;54.444;18.444;2022-09-09T10:08:26;6.75;;;4.15;;
17145;SDS011;8688;54.444;18.444;2022-09-09T10:10:57;6.32;;;4.50;;
17145;SDS011;8688;54.444;18.444;2022-09-09T10:13:36;6.35;;;4.22;;
17145;SDS011;8688;54.444;18.444;2022-09-09T10:16:16;5.18;;;3.55;;
17145;SDS011;8688;54.444;18.444;2022-09-09T10:18:57;5.82;;;4.15;;
17145;SDS011;8688;54.444;18.444;2022-09-09T10:21:32;6.75;;;4.32;;
17145;SDS011;8688;54.444;18.444;2022-09-09T10:24:23;6.63;;;4.72;;
17145;SDS011;8688;54.444;18.444;2022-09-09T10:27:05;6.60;;;4.82;;
17145;SDS011;8688;54.444;18.444;2022-09-09T10:29:49;7.40;;;5.63;;
17145;SDS011;8688;54.444;18.444;2022-09-09T10:32:39;8.32;;;5.00;;
17145;SDS011;8688;54.444;18.444;2022-09-09T10:35:12;5.78;;;3.95;;
17145;SDS011;8688;54.444;18.444;2022-09-09T10:38:00;8.75;;;4.13;;
17145;SDS011;8688;54.444;18.444;2022-09-09T10:40:43;7.57;;;4.38;;
17145;SDS011;8688;54.444;18.444;2022-09-09T10:43:29;6.82;;;4.45;;
17145;SDS011;8688;54.444;18.444;2022-09-09T10:46:07;10.30;;;6.50;;
17145;SDS011;8688;54.444;18.444;2022-09-09T10:48:47;10.20;;;5.82;;
17145;SDS011;8688;54.444;18.444;2022-09-09T10:51:31;7.70;;;4.75;;
17145;SDS011;8688;54.444;18.444;2022-09-09T10:54:23;6.15;;;4.40;;
17145;SDS011;8688;54.444;18.444;2022-09-09T10:57:03;8.32;;;4.63;;
17145;SDS011;8688;54.444;18.444;2022-09-09T10:59:36;7.45;;;4.68;;
17145;SDS011;8688;54.444;18.444;2022-09-09T11:02:10;7.57;;;5.10;;
17145;SDS011;8688;54.444;18.444;2022-09-09T11:04:45;8.93;;;5.50;;
17145;SDS011;8688;54.444;18.444;2022-09-09T11:07:21;7.85;;;5.13;;
17145;SDS011;8688;54.444;18.444;2022-09-09T11:09:56;5.70;;;4.68;;
17145;SDS011;8688;54.444;18.444;2022-09-09T11:12:28;6.65;;;4.80;;
17145;SDS011;8688;54.444;18.444;2022-09-09T11:14:59;9.95;;;5.57;;
17145;SDS011;8688;54.444;18.444;2022-09-09T11:17:36;6.82;;;5.00;;
17145;SDS011;8688;54.444;18.444;2022-09-09T11:20:10;5.65;;;4.60;;
17145;SDS011;8688;54.444;18.444;2022-09-09T11:22:40;8.10;;;5.40;;
17145;SDS011;8688;54.444;18.444;2022-09-09T11:25:16;9.18;;;6.03;;
17145;SDS011;8688;54.444;18.444;2022-09-09T11:27:50;6.93;;;4.80;;
17145;SDS011;8688;54.444;18.444;2022-09-09T11:30:34;7.70;;;5.88;;
17145;SDS011;8688;54.444;18.444;2022-09-09T11:33:19;6.07;;;4.75;;
17145;SDS011;8688;54.444;18.444;2022-09-09T11:36:09;6.97;;;5.30;;
17145;SDS011;8688;54.444;18.444;2022-09-09T11:38:55;8.10;;;5.97;;
17145;SDS011;8688;54.444;18.444;2022-09-09T11:41:34;10.80;;;8.57;;
17145;SDS011;8688;54.444;18.444;2022-09-09T11:44:09;7.90;;;5.03;;
17145;SDS011;8688;54.444;18.444;2022-09-09T11:46:39;8.73;;;4.82;;
17145;SDS011;8688;54.444;18.444;2022-09-09T11:49:23;6.72;;;4.82;;
17145;SDS011;8688;54.444;18.444;2022-09-09T11:51:54;7.95;;;5.10;;
17145;SDS011;8688;54.444;18.444;2022-09-09T11:54:26;7.10;;;4.68;;
17145;SDS011;8688;54.444;18.444;2022-09-09T11:56:57;6.80;;;4.55;;
17145;SDS011;8688;54.444;18.444;2022-09-09T11:59:26;9.35;;;5.63;;
17145;SDS011;8688;54.444;18.444;2022-09-09T12:01:55;7.25;;;5.80;;
17145;SDS011;8688;54.444;18.444;2022-09-09T12:04:28;7.43;;;5.85;;
17145;SDS011;8688;54.444;18.444;2022-09-09T12:07:00;8.02;;;6.30;;
17145;SDS011;8688;54.444;18.444;2022-09-09T12:09:31;7.10;;;5.22;;
17145;SDS011;8688;54.444;18.444;2022-09-09T12:12:27;6.70;;;5.20;;
17145;SDS011;8688;54.444;18.444;2022-09-09T12:14:58;7.32;;;5.15;;
17145;SDS011;8688;54.444;18.444;2022-09-09T12:17:28;7.50;;;5.10;;
17145;SDS011;8688;54.444;18.444;2022-09-09T12:20:00;5.85;;;4.68;;
17145;SDS011;8688;54.444;18.444;2022-09-09T12:22:35;7.10;;;5.35;;
17145;SDS011;8688;54.444;18.444;2022-09-09T12:25:15;6.80;;;5.70;;
17145;SDS011;8688;54.444;18.444;2022-09-09T12:27:52;9.57;;;6.18;;
17145;SDS011;8688;54.444;18.444;2022-09-09T12:30:29;9.43;;;6.22;;
17145;SDS011;8688;54.444;18.444;2022-09-09T12:33:02;6.05;;;5.45;;
17145;SDS011;8688;54.444;18.444;2022-09-09T12:35:35;6.45;;;5.25;;
17145;SDS011;8688;54.444;18.444;2022-09-09T12:38:04;6.10;;;5.05;;
17145;SDS011;8688;54.444;18.444;2022-09-09T12:40:37;7.03;;;5.57;;
17145;SDS011;8688;54.444;18.444;2022-09-09T12:43:17;7.60;;;5.65;;
17145;SDS011;8688;54.444;18.444;2022-09-09T12:45:46;8.35;;;5.65;;
17145;SDS011;8688;54.444;18.444;2022-09-09T12:48:15;8.63;;;5.60;;
17145;SDS011;8688;54.444;18.444;2022-09-09T12:50:45;7.30;;;5.60;;
17145;SDS011;8688;54.444;18.444;2022-09-09T12:53:21;6.75;;;4.90;;
17145;SDS011;8688;54.444;18.444;2022-09-09T12:55:52;7.38;;;4.90;;
17145;SDS011;8688;54.444;18.444;2022-09-09T12:58:24;6.10;;;4.75;;
17145;SDS011;8688;54.444;18.444;2022-09-09T13:00:54;6.20;;;4.82;;
17145;SDS011;8688;54.444;18.444;2022-09-09T13:03:22;5.40;;;4.60;;
17145;SDS011;8688;54.444;18.444;2022-09-09T13:05:51;5.95;;;4.80;;
17145;SDS011;8688;54.444;18.444;2022-09-09T13:08:19;7.13;;;4.90;;
17145;SDS011;8688;54.444;18.444;2022-09-09T13:10:47;6.15;;;4.50;;
17145;SDS011;8688;54.444;18.444;2022-09-09T13:13:21;5.05;;;4.25;;
17145;SDS011;8688;54.444;18.444;2022-09-09T13:15:53;4.40;;;3.97;;
17145;SDS011;8688;54.444;18.444;2022-09-09T13:18:22;4.13;;;3.67;;
17145;SDS011;8688;54.444;18.444;2022-09-09T13:20:51;5.13;;;3.80;;
17145;SDS011;8688;54.444;18.444;2022-09-09T13:23:19;3.53;;;3.15;;
17145;SDS011;8688;54.444;18.444;2022-09-09T13:25:54;3.70;;;2.97;;
17145;SDS011;8688;54.444;18.444;2022-09-09T13:28:25;4.35;;;3.50;;
17145;SDS011;8688;54.444;18.444;2022-09-09T13:30:57;4.30;;;3.25;;
17145;SDS011;8688;54.444;18.444;2022-09-09T13:33:29;5.05;;;3.63;;
17145;SDS011;8688;54.444;18.444;2022-09-09T13:36:03;3.90;;;3.50;;
17145;SDS011;8688;54.444;18.444;2022-09-09T13:38:35;5.05;;;3.20;;
17145;SDS011;8688;54.444;18.444;2022-09-09T13:41:04;3.92;;;3.42;;
17145;SDS011;8688;54.444;18.444;2022-09-09T13:43:36;4.88;;;3.63;;
17145;SDS011;8688;54.444;18.444;2022-09-09T13:46:22;3.58;;;3.10;;
17145;SDS011;8688;54.444;18.444;2022-09-09T13:48:57;3.85;;;3.38;;
17145;SDS011;8688;54.444;18.444;2022-09-09T13:51:29;4.57;;;3.90;;
17145;SDS011;8688;54.444;18.444;2022-09-09T13:54:03;5.85;;;4.60;;
17145;SDS011;8688;54.444;18.444;2022-09-09T13:56:32;6.72;;;5.45;;
17145;SDS011;8688;54.444;18.444;2022-09-09T13:59:02;7.18;;;5.22;;
17145;SDS011;8688;54.444;18.444;2022-09-09T14:01:31;7.25;;;5.68;;
17145;SDS011;8688;54.444;18.444;2022-09-09T14:04:00;7.10;;;4.72;;
17145;SDS011;8688;54.444;18.444;2022-09-09T14:06:27;5.65;;;5.00;;
17145;SDS011;8688;54.444;18.444;2022-09-09T14:08:55;7.78;;;6.53;;
17145;SDS011;8688;54.444;18.444;2022-09-09T14:11:24;8.50;;;6.60;;
17145;SDS011;8688;54.444;18.444;2022-09-09T14:13:54;5.40;;;4.90;;
17145;SDS011;8688;54.444;18.444;2022-09-09T14:16:23;7.30;;;5.20;;
17145;SDS011;8688;54.444;18.444;2022-09-09T14:18:53;6.55;;;5.35;;
17145;SDS011;8688;54.444;18.444;2022-09-09T14:21:21;10.07;;;5.30;;
17145;SDS011;8688;54.444;18.444;2022-09-09T14:23:49;7.10;;;5.20;;
17145;SDS011;8688;54.444;18.444;2022-09-09T14:26:17;6.55;;;5.57;;
17145;SDS011;8688;54.444;18.444;2022-09-09T14:28:46;6.63;;;5.63;;
17145;SDS011;8688;54.444;18.444;2022-09-09T14:31:16;7.68;;;5.93;;
17145;SDS011;8688;54.444;18.444;2022-09-09T14:33:46;10.98;;;6.30;;
17145;SDS011;8688;54.444;18.444;2022-09-09T14:36:13;7.97;;;6.18;;
17145;SDS011;8688;54.444;18.444;2022-09-09T14:38:41;8.23;;;6.90;;
17145;SDS011;8688;54.444;18.444;2022-09-09T14:41:09;7.47;;;6.30;;
17145;SDS011;8688;54.444;18.444;2022-09-09T14:43:38;8.35;;;6.65;;
17145;SDS011;8688;54.444;18.444;2022-09-09T14:46:06;8.23;;;6.28;;
17145;SDS011;8688;54.444;18.444;2022-09-09T14:48:34;8.35;;;6.07;;
17145;SDS011;8688;54.444;18.444;2022-09-09T14:51:06;8.00;;;6.35;;
17145;SDS011;8688;54.444;18.444;2022-09-09T14:53:35;7.88;;;6.63;;
17145;SDS011;8688;54.444;18.444;2022-09-09T14:56:03;12.75;;;6.72;;
17145;SDS011;8688;54.444;18.444;2022-09-09T14:58:32;8.02;;;6.75;;
17145;SDS011;8688;54.444;18.444;2022-09-09T15:01:03;9.68;;;7.10;;
17145;SDS011;8688;54.444;18.444;2022-09-09T15:03:31;7.97;;;6.57;;
17145;SDS011;8688;54.444;18.444;2022-09-09T15:06:04;10.75;;;7.47;;
17145;SDS011;8688;54.444;18.444;2022-09-09T15:08:35;8.75;;;7.05;;
17145;SDS011;8688;54.444;18.444;2022-09-09T15:11:03;10.63;;;7.80;;
17145;SDS011;8688;54.444;18.444;2022-09-09T15:13:32;10.73;;;7.38;;
17145;SDS011;8688;54.444;18.444;2022-09-09T15:16:03;9.35;;;6.70;;
17145;SDS011;8688;54.444;18.444;2022-09-09T15:18:32;8.18;;;6.85;;